Time;durP1;ratioP1;P1;durP2;ratioP2;P2;SDS_P1;SDS_P2;PMS_P1;PMS_P2;Temp;Humidity;BMP_temperature;BMP_pressure;BME280_temperature;BME280_humidity;BME280_pressure;Samples;Min_cycle;Max_cycle;Signal;HPM_P1;HPM_P2
2022/05/01 00:01:51;;;;;;;16.85;13.82;;;5.90;99.90;;;;;;5111092;28;20132;-76
2022/05/01 00:04:17;;;;;;;18.08;12.95;;;5.90;99.90;;;;;;5108422;28;20124;-76
2022/05/01 00:06:43;;;;;;;19.77;13.82;;;5.80;99.90;;;;;;5111288;28;20043;-77
2022/05/01 00:09:09;;;;;;;14.48;11.35;;;5.70;99.90;;;;;;5110912;28;20040;-77
2022/05/01 00:11:35;;;;;;;21.23;13.85;;;5.50;99.90;;;;;;5112709;28;20036;-77
2022/05/01 00:14:00;;;;;;;22.35;14.18;;;5.40;99.90;;;;;;5112285;28;20115;-77
2022/05/01 00:16:26;;;;;;;18.50;12.93;;;5.40;99.90;;;;;;5111129;28;20055;-77
2022/05/01 00:18:52;;;;;;;16.95;13.00;;;5.30;99.90;;;;;;5111181;28;20492;-76
2022/05/01 00:21:18;;;;;;;17.50;12.93;;;5.30;99.90;;;;;;5112321;28;20036;-77
2022/05/01 00:23:45;;;;;;;19.88;14.27;;;5.30;99.90;;;;;;5094059;28;20492;-77
2022/05/01 00:26:12;;;;;;;19.83;14.48;;;5.20;99.90;;;;;;5111999;28;20038;-76
2022/05/01 00:28:38;;;;;;;22.48;14.80;;;5.20;99.90;;;;;;5112187;28;20199;-76
2022/05/01 00:31:06;;;;;;;21.15;14.23;;;5.10;99.90;;;;;;5111623;28;20038;-77
2022/05/01 00:36:27;;;;;;;22.08;15.55;;;5.00;99.90;;;;;;5112014;28;20392;-77
2022/05/01 00:39:02;;;;;;;19.15;12.90;;;4.90;99.90;;;;;;5109943;28;20082;-76
2022/05/01 00:41:29;;;;;;;16.05;12.63;;;4.80;99.90;;;;;;5111363;28;20075;-76
2022/05/01 00:44:08;;;;;;;21.20;13.63;;;4.70;99.90;;;;;;5110747;28;20043;-77
2022/05/01 00:46:42;;;;;;;22.15;14.38;;;4.70;99.90;;;;;;5112847;28;20050;-76
2022/05/01 00:49:27;;;;;;;133.20;19.45;;;4.70;99.90;;;;;;5112885;28;20047;-76
2022/05/01 00:51:58;;;;;;;13.55;11.50;;;4.60;99.90;;;;;;5112782;28;20468;-77
2022/05/01 00:54:28;;;;;;;18.38;12.52;;;4.50;99.90;;;;;;5113121;28;20035;-77
2022/05/01 00:56:57;;;;;;;19.02;15.02;;;4.40;99.90;;;;;;5112761;28;20040;-77
2022/05/01 00:59:23;;;;;;;20.73;13.27;;;4.40;99.90;;;;;;5111688;28;20055;-77
2022/05/01 01:01:50;;;;;;;18.75;13.07;;;4.30;99.90;;;;;;5112857;28;20047;-77
2022/05/01 01:04:16;;;;;;;18.08;13.93;;;4.30;99.90;;;;;;5110722;28;20075;-76
2022/05/01 01:06:43;;;;;;;23.50;15.65;;;4.30;99.90;;;;;;5112657;28;20059;-77
2022/05/01 01:09:09;;;;;;;21.77;16.13;;;4.30;99.90;;;;;;5111461;28;20040;-77
2022/05/01 01:11:36;;;;;;;20.52;14.18;;;4.30;99.90;;;;;;5098006;28;20092;-77
2022/05/01 01:14:05;;;;;;;23.70;16.85;;;4.20;99.90;;;;;;5115249;28;20047;-76
2022/05/01 01:16:37;;;;;;;24.10;15.68;;;4.20;99.90;;;;;;5116420;27;20047;-77
2022/05/01 01:19:04;;;;;;;31.55;18.08;;;4.10;99.90;;;;;;5097937;28;20066;-77
2022/05/01 01:21:30;;;;;;;64.15;18.75;;;4.10;99.90;;;;;;5115157;28;20051;-76
2022/05/01 01:23:57;;;;;;;296.88;36.05;;;4.10;99.90;;;;;;5113955;28;20408;-76
2022/05/01 01:26:24;;;;;;;348.70;33.45;;;4.00;99.90;;;;;;5113853;28;20036;-77
2022/05/01 01:28:50;;;;;;;19.10;13.73;;;3.90;99.90;;;;;;5113844;28;20035;-77
2022/05/01 01:34:09;;;;;;;18.23;13.68;;;3.70;99.90;;;;;;5111407;28;20100;-77
2022/05/01 01:36:37;;;;;;;17.13;12.65;;;3.70;99.90;;;;;;5113729;28;20043;-76
2022/05/01 01:39:03;;;;;;;33.25;15.75;;;3.80;99.90;;;;;;5115040;28;20047;-77
2022/05/01 01:41:30;;;;;;;25.90;10.27;;;3.70;99.90;;;;;;5113858;28;20156;-77
2022/05/01 01:43:58;;;;;;;103.53;15.93;;;3.70;99.90;;;;;;5113555;28;20044;-77
2022/05/01 01:46:24;;;;;;;17.20;11.20;;;3.60;99.90;;;;;;5113674;28;20122;-77
2022/05/01 01:48:50;;;;;;;15.65;11.13;;;3.60;99.90;;;;;;5113381;28;20043;-77
2022/05/01 01:51:17;;;;;;;17.00;11.38;;;3.50;99.90;;;;;;5113363;28;20500;-76
2022/05/01 01:53:44;;;;;;;12.65;9.13;;;3.40;99.90;;;;;;5114683;28;20097;-77
2022/05/01 01:56:10;;;;;;;15.65;10.43;;;3.40;99.90;;;;;;5114512;28;20075;-77
2022/05/01 01:58:39;;;;;;;17.38;11.10;;;3.40;99.90;;;;;;5113436;28;20044;-77
2022/05/01 02:01:06;;;;;;;18.90;12.18;;;3.30;99.90;;;;;;5114327;28;20487;-77
2022/05/01 02:03:36;;;;;;;32.17;16.30;;;3.30;99.90;;;;;;5093945;28;20074;-77
2022/05/01 02:06:04;;;;;;;14.55;11.07;;;3.20;99.90;;;;;;5113058;28;20040;-77
2022/05/01 02:08:31;;;;;;;35.35;13.88;;;3.10;99.90;;;;;;5096346;28;20040;-77
2022/05/01 02:10:57;;;;;;;31.20;13.82;;;3.00;99.90;;;;;;5113193;28;20050;-77
2022/05/01 02:13:22;;;;;;;94.43;23.25;;;3.00;99.90;;;;;;5112990;28;20040;-77
2022/05/01 02:15:48;;;;;;;447.42;53.38;;;3.00;99.90;;;;;;5112888;28;20052;-77
2022/05/01 02:18:14;;;;;;;24.48;11.88;;;2.90;99.90;;;;;;5112894;28;20035;-76
2022/05/01 02:23:25;;;;;;;20.65;14.10;;;2.90;99.90;;;;;;5112157;28;20043;-77
2022/05/01 02:25:51;;;;;;;17.90;13.52;;;2.90;99.90;;;;;;5113908;28;20075;-77
2022/05/01 02:28:17;;;;;;;15.93;12.68;;;2.90;99.90;;;;;;5112945;28;20071;-77
2022/05/01 02:30:44;;;;;;;16.30;11.05;;;2.90;99.90;;;;;;5112609;28;20163;-77
2022/05/01 02:33:10;;;;;;;18.85;11.60;;;2.90;99.90;;;;;;5112702;28;20114;-77
2022/05/01 02:35:37;;;;;;;13.57;10.05;;;2.90;99.90;;;;;;5093462;28;20050;-77
2022/05/01 02:38:04;;;;;;;13.82;9.25;;;2.80;99.90;;;;;;5113829;28;20044;-77
2022/05/01 02:40:33;;;;;;;19.42;8.02;;;2.80;99.90;;;;;;5112565;28;20040;-77
2022/05/01 02:43:00;;;;;;;25.63;9.23;;;2.70;99.90;;;;;;5113812;28;20040;-77
2022/05/01 02:45:26;;;;;;;293.40;31.80;;;2.70;99.90;;;;;;5112566;28;20043;-77
2022/05/01 02:47:53;;;;;;;116.93;22.15;;;2.60;99.90;;;;;;5112227;28;20164;-77
2022/05/01 02:50:19;;;;;;;41.17;14.43;;;2.50;99.90;;;;;;5095167;28;20059;-77
2022/05/01 02:52:45;;;;;;;21.98;12.20;;;2.50;99.90;;;;;;5113452;28;20072;-77
2022/05/01 02:55:11;;;;;;;13.73;9.65;;;2.40;99.90;;;;;;5112367;28;20047;-77
2022/05/01 02:57:38;;;;;;;11.85;9.55;;;2.40;99.90;;;;;;5113349;28;20043;-77
2022/05/01 03:00:05;;;;;;;13.02;9.38;;;2.40;99.90;;;;;;5113572;28;20051;-77
2022/05/01 03:02:32;;;;;;;18.33;10.88;;;2.40;99.90;;;;;;5113438;28;20067;-77
2022/05/01 03:04:58;;;;;;;16.60;12.30;;;2.40;99.90;;;;;;5109496;28;20040;-77
2022/05/01 03:07:24;;;;;;;31.17;13.75;;;2.40;99.90;;;;;;5111865;28;20040;-77
2022/05/01 03:09:50;;;;;;;24.13;12.27;;;2.30;99.90;;;;;;5111896;28;20039;-77
2022/05/01 03:12:18;;;;;;;15.77;9.18;;;2.30;99.90;;;;;;5111838;28;20042;-77
2022/05/01 03:14:45;;;;;;;144.15;26.58;;;2.20;99.90;;;;;;5094893;28;20099;-77
2022/05/01 03:17:11;;;;;;;17.73;12.27;;;2.20;99.90;;;;;;5112839;28;20504;-77
2022/05/01 03:22:22;;;;;;;24.40;10.00;;;2.10;99.90;;;;;;5112764;28;20526;-76
2022/05/01 03:24:48;;;;;;;13.30;10.00;;;2.10;99.90;;;;;;5112758;28;20066;-76
2022/05/01 03:27:14;;;;;;;14.85;11.40;;;2.10;99.90;;;;;;5111609;28;20048;-77
2022/05/01 03:29:40;;;;;;;15.95;10.98;;;2.20;99.90;;;;;;5112941;28;20097;-77
2022/05/01 03:32:07;;;;;;;14.48;11.00;;;2.20;99.90;;;;;;5111707;28;20043;-76
2022/05/01 03:34:40;;;;;;;16.48;11.80;;;2.20;99.90;;;;;;5106341;28;20456;-76
2022/05/01 03:37:07;;;;;;;16.23;11.55;;;2.20;99.90;;;;;;5112592;28;20043;-77
2022/05/01 03:39:36;;;;;;;15.30;12.07;;;2.20;99.90;;;;;;5112699;28;20563;-76
2022/05/01 03:42:04;;;;;;;16.88;12.45;;;2.20;99.90;;;;;;5111502;28;20043;-76
2022/05/01 03:44:29;;;;;;;19.83;12.60;;;2.20;99.90;;;;;;5112709;28;20036;-76
2022/05/01 03:46:55;;;;;;;17.52;12.32;;;2.20;99.90;;;;;;5111473;28;20042;-76
2022/05/01 03:49:21;;;;;;;13.95;10.63;;;2.10;99.90;;;;;;5111101;28;20047;-76
2022/05/01 03:51:47;;;;;;;19.60;13.48;;;2.10;99.90;;;;;;5111406;28;20321;-76
2022/05/01 03:54:13;;;;;;;19.83;14.75;;;2.10;99.90;;;;;;5111190;28;20089;-76
2022/05/01 03:56:39;;;;;;;19.35;13.73;;;2.10;99.90;;;;;;5112523;28;20039;-76
2022/05/01 03:59:04;;;;;;;20.67;13.13;;;2.10;99.90;;;;;;5112384;28;20101;-76
2022/05/01 04:01:33;;;;;;;17.48;12.00;;;2.00;99.90;;;;;;5094351;28;20054;-76
2022/05/01 04:03:59;;;;;;;63.03;16.25;;;2.00;99.90;;;;;;5091837;28;20423;-76
2022/05/01 04:06:25;;;;;;;61.70;13.85;;;1.90;99.90;;;;;;5111310;28;20044;-76
2022/05/01 04:08:52;;;;;;;15.07;10.98;;;1.80;99.90;;;;;;5112367;28;20457;-76
2022/05/01 04:11:18;;;;;;;25.65;14.18;;;1.70;99.90;;;;;;5111061;28;20173;-76
2022/05/01 04:13:43;;;;;;;17.60;12.00;;;1.70;99.90;;;;;;5112287;28;20118;-75
2022/05/01 04:16:09;;;;;;;21.98;11.88;;;1.70;99.90;;;;;;5110992;28;20043;-76
2022/05/01 04:18:35;;;;;;;73.90;14.63;;;1.60;99.90;;;;;;5110732;28;20044;-76
2022/05/01 04:21:01;;;;;;;106.38;18.73;;;1.60;99.90;;;;;;5112773;28;20090;-75
2022/05/01 04:23:27;;;;;;;125.00;24.67;;;1.60;99.90;;;;;;5112033;28;20086;-75
2022/05/01 04:25:54;;;;;;;108.60;17.45;;;1.60;99.90;;;;;;5111833;28;20046;-75
2022/05/01 04:28:20;;;;;;;22.80;11.02;;;1.60;99.90;;;;;;5113104;28;20031;-75
2022/05/01 04:30:46;;;;;;;56.92;14.70;;;1.60;99.90;;;;;;5112090;28;20070;-75
2022/05/01 04:33:14;;;;;;;24.25;14.82;;;1.60;99.90;;;;;;5111647;28;20043;-76
2022/05/01 04:35:45;;;;;;;219.70;26.85;;;1.60;99.90;;;;;;5110152;28;20040;-75
2022/05/01 04:38:21;;;;;;;189.93;23.00;;;1.60;99.90;;;;;;5111664;28;20118;-75
2022/05/01 04:40:48;;;;;;;119.53;17.77;;;1.60;99.90;;;;;;5094716;28;20051;-75
2022/05/01 04:43:19;;;;;;;34.20;13.82;;;1.60;99.90;;;;;;5112854;28;20042;-75
2022/05/01 04:45:52;;;;;;;31.23;15.75;;;1.70;99.90;;;;;;5114992;28;20111;-75
2022/05/01 04:48:19;;;;;;;103.82;19.30;;;1.70;99.90;;;;;;5115844;28;20032;-75
2022/05/01 04:50:46;;;;;;;150.43;23.20;;;1.80;99.90;;;;;;5116378;28;20062;-75
2022/05/01 04:53:13;;;;;;;177.00;28.10;;;1.90;99.90;;;;;;5116852;28;20398;-75
2022/05/01 04:55:40;;;;;;;79.18;18.70;;;1.90;99.90;;;;;;5116765;28;20084;-75
2022/05/01 04:58:07;;;;;;;25.92;15.15;;;1.90;99.90;;;;;;5116667;28;20043;-75
2022/05/01 05:00:33;;;;;;;28.38;15.15;;;1.90;99.90;;;;;;5115371;28;20118;-76
2022/05/01 05:02:59;;;;;;;17.23;14.30;;;1.90;99.90;;;;;;5116914;28;20045;-75
2022/05/01 05:05:27;;;;;;;17.65;15.05;;;2.00;99.90;;;;;;5114662;28;20503;-75
2022/05/01 05:07:53;;;;;;;17.35;14.77;;;2.10;99.90;;;;;;5115479;28;20039;-75
2022/05/01 05:10:19;;;;;;;23.27;16.75;;;2.20;99.90;;;;;;5115588;28;20436;-75
2022/05/01 05:12:47;;;;;;;62.80;26.25;;;2.30;99.90;;;;;;5116439;28;20128;-75
2022/05/01 05:15:19;;;;;;;123.18;32.75;;;2.40;99.90;;;;;;5116443;28;20089;-75
2022/05/01 05:17:44;;;;;;;21.23;12.60;;;2.40;99.90;;;;;;5116525;28;20111;-76
2022/05/01 05:20:12;;;;;;;14.13;12.48;;;2.40;99.90;;;;;;5116607;28;20119;-75
2022/05/01 05:22:39;;;;;;;15.23;13.20;;;2.40;99.90;;;;;;5097984;28;20511;-76
2022/05/01 05:25:11;;;;;;;13.25;11.63;;;2.50;99.90;;;;;;5098029;28;20044;-76
2022/05/01 05:27:38;;;;;;;34.08;18.10;;;2.50;99.90;;;;;;5114917;28;20039;-76
2022/05/01 05:30:04;;;;;;;27.05;18.15;;;2.70;99.90;;;;;;5115008;28;20043;-76
2022/05/01 05:32:30;;;;;;;26.88;18.60;;;2.80;99.90;;;;;;5116073;28;20044;-77
2022/05/01 05:34:56;;;;;;;25.58;19.40;;;2.90;99.90;;;;;;5113070;28;20055;-77
2022/05/01 05:37:22;;;;;;;21.40;16.90;;;3.00;99.90;;;;;;5116117;28;20462;-77
2022/05/01 05:39:49;;;;;;;20.95;16.52;;;3.10;99.90;;;;;;5116000;28;20043;-77
2022/05/01 05:42:16;;;;;;;25.48;19.45;;;3.20;99.90;;;;;;5115931;28;20043;-77
2022/05/01 05:44:43;;;;;;;25.23;19.02;;;3.30;99.90;;;;;;5114542;28;20039;-77
2022/05/01 05:47:09;;;;;;;26.30;19.00;;;3.50;99.90;;;;;;5114671;28;20100;-77
2022/05/01 05:49:35;;;;;;;27.70;18.90;;;3.70;99.90;;;;;;5114366;28;20462;-77
2022/05/01 05:52:01;;;;;;;23.75;18.92;;;3.90;99.90;;;;;;5114840;28;20040;-77
2022/05/01 05:54:27;;;;;;;28.17;19.77;;;4.10;99.90;;;;;;5096623;28;20048;-77
2022/05/01 05:56:53;;;;;;;29.27;20.13;;;4.40;99.90;;;;;;5113262;28;20051;-77
2022/05/01 05:59:19;;;;;;;24.85;19.50;;;4.60;99.90;;;;;;5113620;28;20039;-77
2022/05/01 06:01:44;;;;;;;26.42;19.63;;;4.80;99.90;;;;;;5113347;28;20492;-77
2022/05/01 06:04:10;;;;;;;28.02;19.65;;;5.00;99.90;;;;;;5110684;28;20039;-77
2022/05/01 06:06:36;;;;;;;29.02;19.77;;;5.20;99.90;;;;;;5113485;28;20040;-77
2022/05/01 06:09:03;;;;;;;23.48;18.50;;;5.50;99.90;;;;;;5096111;28;20491;-77
2022/05/01 06:11:28;;;;;;;18.88;15.20;;;5.70;99.90;;;;;;5114347;28;20069;-77
2022/05/01 06:13:55;;;;;;;20.05;16.50;;;6.00;99.90;;;;;;5109755;28;20444;-77
2022/05/01 06:16:20;;;;;;;17.23;14.48;;;6.30;99.90;;;;;;5113793;28;20035;-77
2022/05/01 06:18:46;;;;;;;20.60;15.88;;;6.50;99.90;;;;;;5095897;28;20488;-77
2022/05/01 06:21:13;;;;;;;22.17;15.70;;;6.70;99.90;;;;;;5112818;28;20046;-77
2022/05/01 06:23:40;;;;;;;18.33;14.00;;;6.90;99.90;;;;;;5113684;28;20503;-77
2022/05/01 06:26:07;;;;;;;17.98;12.32;;;7.20;99.90;;;;;;5113019;28;20066;-77
2022/05/01 06:28:33;;;;;;;16.95;12.23;;;7.50;99.90;;;;;;5112682;28;20050;-77
2022/05/01 06:31:02;;;;;;;15.00;11.73;;;7.80;99.90;;;;;;5112646;28;20046;-77
2022/05/01 06:33:29;;;;;;;12.88;10.00;;;8.10;99.90;;;;;;5113792;28;20038;-76
2022/05/01 06:35:55;;;;;;;11.88;9.20;;;8.50;99.90;;;;;;5115312;28;20062;-77
2022/05/01 06:38:23;;;;;;;11.35;9.20;;;8.80;99.90;;;;;;5113178;28;20076;-77
2022/05/01 06:40:49;;;;;;;13.48;9.07;;;9.00;99.90;;;;;;5113401;28;20108;-77
2022/05/01 06:43:17;;;;;;;10.65;8.68;;;9.30;99.90;;;;;;5114285;28;20115;-76
2022/05/01 06:45:43;;;;;;;11.82;8.82;;;9.50;99.90;;;;;;5114016;28;20035;-76
2022/05/01 06:48:10;;;;;;;11.82;8.27;;;9.70;99.90;;;;;;5109369;28;20036;-77
2022/05/01 06:50:36;;;;;;;11.15;9.32;;;9.70;99.90;;;;;;5095675;28;20539;-77
2022/05/01 06:53:04;;;;;;;10.93;9.60;;;9.80;99.90;;;;;;5112959;28;20079;-77
2022/05/01 06:55:30;;;;;;;10.27;8.60;;;10.00;99.90;;;;;;5095943;28;20100;-77
2022/05/01 06:57:56;;;;;;;12.27;8.57;;;10.40;99.90;;;;;;5114058;28;20047;-77
2022/05/01 07:00:22;;;;;;;11.57;7.70;;;10.60;99.90;;;;;;5111891;28;20073;-78
2022/05/01 07:02:49;;;;;;;9.85;7.38;;;10.90;99.90;;;;;;5113039;28;20441;-77
2022/05/01 07:05:17;;;;;;;11.52;8.60;;;11.10;99.90;;;;;;5110478;28;20038;-77
2022/05/01 07:07:43;;;;;;;8.48;7.55;;;11.20;99.90;;;;;;5095327;28;20460;-76
2022/05/01 07:10:14;;;;;;;9.48;7.75;;;11.30;99.90;;;;;;5112616;28;20040;-77
2022/05/01 07:12:40;;;;;;;9.13;7.53;;;11.40;99.90;;;;;;5112860;28;20082;-76
2022/05/01 07:15:07;;;;;;;7.90;6.75;;;11.40;99.90;;;;;;5112959;28;20079;-76
2022/05/01 07:17:33;;;;;;;8.05;6.60;;;11.70;99.90;;;;;;5112539;28;20031;-76
2022/05/01 07:19:59;;;;;;;9.00;6.78;;;12.00;99.90;;;;;;5112842;28;20043;-76
2022/05/01 07:22:26;;;;;;;9.07;6.70;;;12.30;99.90;;;;;;5113888;28;20039;-76
2022/05/01 07:24:52;;;;;;;6.90;5.03;;;12.50;99.90;;;;;;5113677;27;20044;-76
2022/05/01 07:27:17;;;;;;;5.90;5.30;;;12.80;99.90;;;;;;5112500;28;20042;-76
2022/05/01 07:29:44;;;;;;;8.55;5.72;;;13.00;99.90;;;;;;5112447;28;20039;-77
2022/05/01 07:32:10;;;;;;;6.85;5.10;;;13.10;99.90;;;;;;5113873;28;20031;-74
2022/05/01 07:34:36;;;;;;;6.38;4.78;;;13.10;99.90;;;;;;5093297;28;20039;-75
2022/05/01 07:37:03;;;;;;;7.40;5.25;;;13.10;99.90;;;;;;5112299;28;20046;-73
2022/05/01 07:39:29;;;;;;;6.10;4.90;;;13.20;99.90;;;;;;5112293;28;20046;-73
2022/05/01 07:41:55;;;;;;;6.45;4.70;;;13.40;99.90;;;;;;5112463;28;20400;-73
2022/05/01 07:44:20;;;;;;;7.63;5.03;;;13.50;99.90;;;;;;5112033;28;20044;-74
2022/05/01 07:46:46;;;;;;;5.90;4.80;;;13.60;99.90;;;;;;5113691;28;20035;-75
2022/05/01 07:49:12;;;;;;;7.70;4.95;;;13.90;99.90;;;;;;5113169;28;20083;-76
2022/05/01 07:51:39;;;;;;;6.88;4.78;;;14.00;99.90;;;;;;5111957;28;20082;-75
2022/05/01 07:54:06;;;;;;;5.80;3.80;;;14.10;99.90;;;;;;5113668;28;20040;-74
2022/05/01 07:56:33;;;;;;;6.60;3.63;;;14.10;99.90;;;;;;5113486;28;20041;-75
2022/05/01 07:58:59;;;;;;;8.68;4.03;;;14.10;99.90;;;;;;5112163;28;20476;-74
2022/05/01 08:01:26;;;;;;;6.88;4.32;;;14.00;99.90;;;;;;5113398;28;20084;-73
2022/05/01 08:06:36;;;;;;;7.38;5.07;;;14.70;99.90;;;;;;5111988;28;20055;-75
2022/05/01 08:09:03;;;;;;;7.95;4.93;;;14.90;99.90;;;;;;5111727;28;20043;-75
2022/05/01 08:11:29;;;;;;;7.88;5.55;;;15.20;99.90;;;;;;5111728;28;20036;-73
2022/05/01 08:13:55;;;;;;;7.68;5.40;;;15.40;99.90;;;;;;5113201;28;20039;-75
2022/05/01 08:16:22;;;;;;;7.20;5.65;;;15.70;99.90;;;;;;5111929;28;20484;-73
2022/05/01 08:21:33;;;;;;;9.27;5.13;;;16.00;99.90;;;;;;5116575;28;20051;-72
2022/05/01 08:24:00;;;;;;;7.07;5.50;;;16.10;99.90;;;;;;5117385;28;20098;-75
2022/05/01 08:26:27;;;;;;;6.10;4.65;;;16.40;99.90;;;;;;5116216;28;20031;-74
2022/05/01 08:28:54;;;;;;;7.38;4.80;;;16.70;99.90;;;;;;5116216;28;20444;-75
2022/05/01 08:31:21;;;;;;;5.35;4.78;;;17.00;99.90;;;;;;5098813;28;20047;-72
2022/05/01 08:33:47;;;;;;;7.95;5.40;;;17.10;99.90;;;;;;5113674;28;20102;-72
2022/05/01 08:36:13;;;;;;;6.13;4.53;;;16.90;99.90;;;;;;5116186;28;20392;-72
2022/05/01 08:38:39;;;;;;;7.63;5.15;;;16.70;99.50;;;;;;5117108;28;20039;-72
2022/05/01 08:41:07;;;;;;;6.15;4.82;;;16.40;98.80;;;;;;5115931;28;20498;-73
2022/05/01 08:43:34;;;;;;;7.53;4.72;;;16.20;98.80;;;;;;5115638;28;20039;-72
2022/05/01 08:46:13;;;;;;;7.72;4.43;;;16.00;98.60;;;;;;5115529;28;20046;-72
2022/05/01 08:49:09;;;;;;;7.03;4.45;;;15.80;98.10;;;;;;5115434;28;20073;-69
2022/05/01 08:51:36;;;;;;;6.85;4.53;;;15.80;98.10;;;;;;5114037;28;20043;-72
2022/05/01 08:54:07;;;;;;;6.82;4.57;;;15.80;95.90;;;;;;5115432;28;20158;-69
2022/05/01 08:56:34;;;;;;;6.10;4.65;;;15.70;95.60;;;;;;5115578;28;20040;-72
2022/05/01 08:59:09;;;;;;;5.63;4.38;;;15.40;93.80;;;;;;5115548;28;20120;-72
2022/05/01 09:01:36;;;;;;;7.63;4.82;;;14.90;94.60;;;;;;5115138;28;20119;-73
2022/05/01 09:04:06;;;;;;;7.82;4.72;;;14.80;96.40;;;;;;5114421;28;20474;-73
2022/05/01 09:06:35;;;;;;;5.80;4.63;;;15.10;97.60;;;;;;5115288;28;20039;-73
2022/05/01 09:09:09;;;;;;;7.88;4.63;;;15.60;98.50;;;;;;5095353;28;20038;-73
2022/05/01 09:14:24;;;;;;;6.20;4.50;;;16.20;96.50;;;;;;5094727;28;20495;-73
2022/05/01 09:17:23;;;;;;;6.00;4.35;;;16.30;94.30;;;;;;5094842;28;20517;-72
2022/05/01 09:20:03;;;;;;;7.68;3.70;;;16.40;93.90;;;;;;5094370;28;20109;-74
2022/05/01 09:22:53;;;;;;;5.53;3.92;;;16.40;92.80;;;;;;5094035;28;20040;-73
2022/05/01 09:25:22;;;;;;;;;;;16.70;91.40;;;;;;5111380;28;20488;-73
2022/05/01 09:27:49;;;;;;;7.33;4.47;;;16.80;92.50;;;;;;5095527;28;19919;-72
2022/05/01 09:30:19;;;;;;;5.55;4.18;;;16.90;92.50;;;;;;5094207;28;20323;-72
2022/05/01 09:32:46;;;;;;;5.13;4.43;;;17.00;91.30;;;;;;5095043;28;20044;-73
2022/05/01 09:35:15;;;;;;;6.82;4.90;;;17.00;90.40;;;;;;5092230;28;20660;-71
2022/05/01 09:37:42;;;;;;;5.80;4.28;;;17.00;90.40;;;;;;5095304;28;20047;-71
2022/05/01 09:40:09;;;;;;;5.03;4.47;;;17.10;90.20;;;;;;5094007;28;20114;-72
2022/05/01 09:42:35;;;;;;;5.90;4.72;;;17.30;89.40;;;;;;5094316;28;20048;-72
2022/05/01 09:45:06;;;;;;;5.82;4.97;;;17.70;90.10;;;;;;5077123;28;20131;-72
2022/05/01 09:47:36;;;;;;;6.88;5.30;;;17.90;89.60;;;;;;5093890;28;20043;-72
2022/05/01 09:50:05;;;;;;;7.28;4.32;;;18.00;83.70;;;;;;5093685;28;20056;-72
2022/05/01 09:52:54;;;;;;;5.88;4.15;;;18.10;82.20;;;;;;5094520;28;20494;-72
2022/05/01 09:55:20;;;;;;;6.47;4.60;;;18.20;81.50;;;;;;5093959;28;20075;-71
2022/05/01 09:57:46;;;;;;;6.75;4.65;;;18.40;83.30;;;;;;5093898;28;20526;-71
2022/05/01 10:00:13;;;;;;;7.63;4.82;;;18.50;82.40;;;;;;5095077;28;20044;-71
2022/05/01 10:02:40;;;;;;;5.95;4.55;;;18.60;81.20;;;;;;5094966;28;20040;-71
2022/05/01 10:05:08;;;;;;;7.47;4.60;;;18.80;79.90;;;;;;5092583;28;20238;-71
2022/05/01 10:07:39;;;;;;;6.07;4.30;;;18.70;77.00;;;;;;5093792;28;20101;-71
2022/05/01 10:10:10;;;;;;;8.30;4.80;;;18.60;75.60;;;;;;5109639;28;20039;-71
2022/05/01 10:12:44;;;;;;;7.47;4.80;;;18.70;77.10;;;;;;5115409;28;20164;-71
2022/05/01 10:15:10;;;;;;;7.28;4.88;;;19.00;77.30;;;;;;5114992;28;20036;-70
2022/05/01 10:17:38;;;;;;;6.43;4.25;;;19.30;75.00;;;;;;5096714;28;20046;-71
2022/05/01 10:20:04;;;;;;;6.13;4.70;;;19.10;70.70;;;;;;5113779;28;20086;-71
2022/05/01 10:22:32;;;;;;;6.35;4.57;;;18.90;70.00;;;;;;5111101;28;20468;-70
2022/05/01 10:24:58;;;;;;;5.70;4.07;;;18.80;71.50;;;;;;5114952;28;20039;-71
2022/05/01 10:27:59;;;;;;;5.15;3.70;;;18.70;72.50;;;;;;5113656;28;20174;-70
2022/05/01 10:33:31;;;;;;;5.57;4.30;;;18.60;69.00;;;;;;5118349;28;20051;-70
2022/05/01 10:36:15;;;;;;;5.15;4.65;;;18.60;71.60;;;;;;5119302;28;20084;-71
2022/05/01 10:39:08;;;;;;;4.20;3.80;;;18.90;71.90;;;;;;5115836;28;20051;-71
2022/05/01 10:41:39;;;;;;;5.25;4.30;;;19.00;70.30;;;;;;5113505;28;20051;-71
2022/05/01 10:44:05;;;;;;;5.15;4.03;;;19.10;68.00;;;;;;5113679;28;20559;-72
2022/05/01 10:46:32;;;;;;;4.95;3.85;;;18.90;68.90;;;;;;5110542;28;20032;-71
2022/05/01 10:49:05;;;;;;;5.20;3.75;;;18.50;69.20;;;;;;5114314;28;20056;-72
2022/05/01 10:51:31;;;;;;;6.20;4.07;;;17.90;66.90;;;;;;5114559;28;20051;-72
2022/05/01 10:54:14;;;;;;;4.97;3.78;;;17.30;66.50;;;;;;5113424;28;20047;-71
2022/05/01 10:56:43;;;;;;;4.93;3.72;;;16.90;66.50;;;;;;5114359;28;20047;-71
2022/05/01 10:59:39;;;;;;;5.60;3.40;;;16.70;67.10;;;;;;5113204;28;20043;-71
2022/05/01 11:02:17;;;;;;;4.22;3.47;;;16.80;67.90;;;;;;5113304;28;20043;-70
2022/05/01 11:04:42;;;;;;;4.85;3.35;;;16.60;64.50;;;;;;5093623;28;20134;-70
2022/05/01 11:07:13;;;;;;;5.20;4.18;;;16.60;66.60;;;;;;5112790;28;20085;-71
2022/05/01 11:09:47;;;;;;;6.10;3.90;;;17.00;68.10;;;;;;5112664;28;20044;-71
2022/05/01 11:12:15;;;;;;;5.03;3.80;;;17.50;66.60;;;;;;5112940;28;20039;-72
2022/05/01 11:15:02;;;;;;;5.97;3.42;;;18.20;67.90;;;;;;5112984;28;20118;-72
2022/05/01 11:17:39;;;;;;;5.85;4.22;;;18.70;68.20;;;;;;5112103;28;20112;-72
2022/05/01 11:20:14;;;;;;;5.68;3.58;;;19.20;67.70;;;;;;5113733;28;20047;-69
2022/05/01 11:22:41;;;;;;;5.25;3.63;;;19.50;66.50;;;;;;5112781;28;20047;-72
2022/05/01 11:25:13;;;;;;;4.25;3.65;;;19.50;64.90;;;;;;5113417;28;20047;-72
2022/05/01 11:27:53;;;;;;;4.68;3.10;;;19.40;65.70;;;;;;5113778;28;20672;-73
2022/05/01 11:30:28;;;;;;;5.63;3.22;;;19.50;65.30;;;;;;5112721;28;20032;-73
2022/05/01 11:33:11;;;;;;;4.07;3.28;;;19.60;63.60;;;;;;5112255;28;20046;-72
2022/05/01 11:35:56;;;;;;;4.28;3.75;;;19.60;61.90;;;;;;5111481;28;20399;-71
2022/05/01 11:38:23;;;;;;;4.30;3.58;;;19.10;62.20;;;;;;5113633;28;20122;-72
2022/05/01 11:40:55;;;;;;;5.25;3.33;;;18.50;62.60;;;;;;5112442;28;20451;-72
2022/05/01 11:43:21;;;;;;;4.85;3.65;;;18.20;63.20;;;;;;5112614;28;20375;-71
2022/05/01 11:45:48;;;;;;;5.47;3.78;;;17.90;63.80;;;;;;5095375;28;20101;-72
2022/05/01 11:48:17;;;;;;;5.43;3.60;;;17.60;65.30;;;;;;5095178;28;20122;-72
2022/05/01 11:50:51;;;;;;;7.50;4.03;;;17.40;63.80;;;;;;5113322;28;20146;-72
2022/05/01 11:53:19;;;;;;;5.63;3.65;;;17.30;68.20;;;;;;5093191;28;20045;-72
2022/05/01 12:04:31;;;;;;;5.60;4.07;;;17.10;69.20;;;;;;5111028;28;20047;-72
2022/05/01 12:07:09;;;;;;;6.63;4.25;;;17.10;70.20;;;;;;5113345;28;20077;-72
2022/05/01 12:09:37;;;;;;;5.00;3.30;;;17.50;68.80;;;;;;5112110;28;20036;-71
2022/05/01 12:12:05;;;;;;;4.50;3.40;;;17.70;68.50;;;;;;5114271;28;20509;-72
2022/05/01 12:14:30;;;;;;;4.95;3.70;;;17.80;68.00;;;;;;5112116;28;20047;-72
2022/05/01 12:16:56;;;;;;;5.22;4.32;;;17.70;68.90;;;;;;5109526;28;20043;-71
2022/05/01 12:19:35;;;;;;;5.10;4.07;;;17.50;66.90;;;;;;5111834;28;20046;-75
2022/05/01 12:22:01;;;;;;;5.93;3.95;;;17.20;67.90;;;;;;5111786;28;20039;-71
2022/05/01 12:24:27;;;;;;;4.47;3.53;;;16.80;67.50;;;;;;5113040;28;20047;-71
2022/05/01 12:26:54;;;;;;;4.82;4.22;;;16.40;69.70;;;;;;5111991;28;20046;-71
2022/05/01 12:29:20;;;;;;;7.32;4.05;;;16.10;71.60;;;;;;5111625;28;20071;-71
2022/05/01 12:32:03;;;;;;;6.15;4.50;;;15.90;71.50;;;;;;5113184;28;20074;-71
2022/05/01 12:34:30;;;;;;;6.53;3.58;;;15.80;72.20;;;;;;5110971;28;20040;-71
2022/05/01 12:37:02;;;;;;;6.28;3.70;;;15.70;71.40;;;;;;5112157;28;20035;-72
2022/05/01 12:39:30;;;;;;;5.57;3.40;;;15.60;70.00;;;;;;5111937;28;20051;-72
2022/05/01 12:45:17;;;;;;;3.47;3.17;;;15.80;70.60;;;;;;5113005;28;20040;-71
2022/05/01 12:47:48;;;;;;;4.60;3.22;;;16.00;69.90;;;;;;5109310;28;20462;-71
2022/05/01 12:50:20;;;;;;;4.55;3.15;;;16.40;70.20;;;;;;5111477;28;20063;-72
2022/05/01 12:52:48;;;;;;;4.82;3.60;;;16.70;69.10;;;;;;5111821;28;20112;-70
2022/05/01 12:55:17;;;;;;;4.47;2.72;;;17.00;68.50;;;;;;5110472;28;20488;-71
2022/05/01 12:57:50;;;;;;;4.60;3.47;;;17.30;66.20;;;;;;5111381;28;20039;-71
2022/05/01 13:00:40;;;;;;;5.78;2.83;;;17.30;65.30;;;;;;5111387;28;20086;-71
2022/05/01 13:03:33;;;;;;;4.25;2.80;;;17.10;66.00;;;;;;5111516;28;20043;-70
2022/05/01 13:06:06;;;;;;;6.07;2.90;;;16.80;64.00;;;;;;5091697;28;20076;-70
2022/05/01 13:08:34;;;;;;;3.60;2.60;;;16.50;63.90;;;;;;5094869;28;20044;-71
2022/05/01 13:11:30;;;;;;;4.60;3.00;;;16.20;65.00;;;;;;5095046;28;20051;-71
2022/05/01 13:13:56;;;;;;;4.60;2.92;;;16.00;65.20;;;;;;5096215;28;20361;-71
2022/05/01 13:16:43;;;;;;;5.20;3.22;;;16.10;65.10;;;;;;5094951;28;20097;-71
2022/05/01 13:19:20;;;;;;;4.43;2.50;;;16.00;63.50;;;;;;5110958;28;20109;-69
2022/05/01 13:21:52;;;;;;;8.50;2.97;;;16.20;66.40;;;;;;5114990;28;20082;-70
2022/05/01 13:24:18;;;;;;;4.22;2.67;;;16.40;65.60;;;;;;5097784;28;20126;-71